Virgin, Utah
Current Conditions -  °F | °C
As of 2:35 AM on Friday 31 Oct 2014 (Local Time) from KAZC Reporting Station
Clear Clear  
Wind Chill: 46°   Ceiling: Unl
Heat Index: 48°   Visibility: 10mi
Dew Point: 20°   Wind: 5mph
Humidity: 34%   Direction: 180°S
Pressure: 30.16"   Gusts: NA
Location:  37.21°N, 113.19°W
Report Text: KAZC 310835Z AUTO 18004KT 10SM CLR 09/M06 A3016 RMK AO2 T00871064
Loading
Personal Weather Stations






























Interactive Weather Map
Tropical Storm Tracking
New forecast layout! Learn more

10-Day Weather Forecast

Advertisements
Track Severe Weather on mobile